UKBB/KBP METAR and TAF weather

Enter ICAO airport designator
Station Type Date Time Source
UKBB METAR 2020/09/23 04:00 UTC NOAA

UKBB 230400Z 18001MPS CAVOK 03/02 Q1019 R18L/CLRD// NOSIG


Station Type Date Time Source
UKBB Decoded METAR 2020/09/23 04:00 UTC NOAA

Boryspil, Ukraine (UKBB) 50-20N 030-58E 122M
Sep 23, 2020 - 12:00 AM EDT / 2020.09.23 0400 UTC
Wind: from the S (180 degrees) at 2 MPH (2 KT):0
Visibility: greater than 7 mile(s):0
Temperature: 37 F (3 C)
Dew Point: 35 F (2 C)
Relative Humidity: 93%
Pressure (altimeter): 30.09 in. Hg (1019 hPa)
ob: UKBB 230400Z 18001MPS CAVOK 03/02 Q1019 R18L/CLRD// NOSIG
cycle: 4

Station Type Date Time Source
UKBB TAF 2020/09/22 18:25 UTC NOAA

TAF UKBB 221700Z 2218/2318 17003MPS 9999 SCT040 TX27/2312Z TN05/2303Z
BECMG 2306/2307 14004G09MPS

Example: see airport list